Time;durP1;ratioP1;P1;durP2;ratioP2;P2;SDS_P1;SDS_P2;PMS_P1;PMS_P2;Temp;Humidity;BMP_temperature;BMP_pressure;BME280_temperature;BME280_humidity;BME280_pressure;Samples;Min_cycle;Max_cycle;Signal;HPM_P1;HPM_P2
2024/01/25 00:00:12;;;;;;;;;;;;;;;;;;5039752;28;5128;-66
2024/01/25 00:02:37;;;;;;;;;;;;;;;;;;5032951;28;3421;-67
2024/01/25 00:05:03;;;;;;;;;;;;;;;;;;5036225;28;4789;-67
2024/01/25 00:07:29;;;;;;;;;;;;;;;;;;5031971;28;4533;-67
2024/01/25 00:09:54;;;;;;;;;;;;;;;;;;5035547;28;5218;-67
2024/01/25 00:12:19;;;;;;;;;;;;;;;;;;5040141;28;5103;-67
2024/01/25 00:14:45;;;;;;;;;;;;;;;;;;5035232;28;3379;-67
2024/01/25 00:17:10;;;;;;;;;;;;;;;;;;5043821;28;5087;-67
2024/01/25 00:19:35;;;;;;;;;;;;;;;;;;5026601;28;4537;-67
2024/01/25 00:22:00;;;;;;;;;;;;;;;;;;5037233;28;5082;-67
2024/01/25 00:24:26;;;;;;;;;;;;;;;;;;5030772;28;4845;-66
2024/01/25 00:26:51;;;;;;;;;;;;;;;;;;5031711;28;3341;-66
2024/01/25 00:29:16;;;;;;;;;;;;;;;;;;5034749;28;5017;-66
2024/01/25 00:31:42;;;;;;;;;;;;;;;;;;5036217;28;5069;-66
2024/01/25 00:34:07;;;;;;;;;;;;;;;;;;5032314;28;5375;-67
2024/01/25 00:36:32;;;;;;;;;;;;;;;;;;5028918;28;5251;-66
2024/01/25 00:38:58;;;;;;;;;;;;;;;;;;5039474;28;3351;-67
2024/01/25 00:41:23;;;;;;;;;;;;;;;;;;5040272;28;4938;-67
2024/01/25 00:43:49;;;;;;;;;;;;;;;;;;5028856;28;5248;-67
2024/01/25 00:46:14;;;;;;;;;;;;;;;;;;5033575;28;4717;-67
2024/01/25 00:48:42;;;;;;;;;;;;;;;;;;5037300;28;5092;-67
2024/01/25 00:51:08;;;;;;;;;;;;;;;;;;5033636;28;5176;-66
2024/01/25 00:53:34;;;;;;;;;;;;;;;;;;5042707;28;3738;-66
2024/01/25 00:55:59;;;;;;;;;;;;;;;;;;5033686;28;5611;-66
2024/01/25 00:58:25;;;;;;;;;;;;;;;;;;5039994;28;5142;-66
2024/01/25 01:00:50;;;;;;;;;;;;;;;;;;5037068;28;5413;-66
2024/01/25 01:03:16;;;;;;;;;;;;;;;;;;5033517;28;4613;-67
2024/01/25 01:05:41;;;;;;;;;;;;;;;;;;5043727;28;1105;-66
2024/01/25 01:08:07;;;;;;;;;;;;;;;;;;5041006;28;4917;-66
2024/01/25 01:10:32;;;;;;;;;;;;;;;;;;5035635;28;5215;-66
2024/01/25 01:12:57;;;;;;;;;;;;;;;;;;5040920;28;4543;-67
2024/01/25 01:15:23;;;;;;;;;;;;;;;;;;5037435;28;4982;-67
2024/01/25 01:17:48;;;;;;;;;;;;;;;;;;5040051;28;3315;-67
2024/01/25 01:20:13;;;;;;;;;;;;;;;;;;5040279;28;5265;-67
2024/01/25 01:22:38;;;;;;;;;;;;;;;;;;5040553;28;4740;-67
2024/01/25 01:25:04;;;;;;;;;;;;;;;;;;5040011;28;4491;-67
2024/01/25 01:27:29;;;;;;;;;;;;;;;;;;5042767;28;5188;-67
2024/01/25 01:29:55;;;;;;;;;;;;;;;;;;5044758;28;1223;-67
2024/01/25 01:32:20;;;;;;;;;;;;;;;;;;5039733;28;5115;-67
2024/01/25 01:34:45;;;;;;;;;;;;;;;;;;5041862;28;5057;-67
2024/01/25 01:37:10;;;;;;;;;;;;;;;;;;5041059;28;5095;-68
2024/01/25 01:39:36;;;;;;;;;;;;;;;;;;5023972;28;4976;-66
2024/01/25 01:42:01;;;;;;;;;;;;;;;;;;5042984;28;4679;-66
2024/01/25 01:44:26;;;;;;;;;;;;;;;;;;5040519;28;3237;-67
2024/01/25 01:46:52;;;;;;;;;;;;;;;;;;5042454;28;5208;-67
2024/01/25 01:49:17;;;;;;;;;;;;;;;;;;5048890;28;4726;-67
2024/01/25 01:51:43;;;;;;;;;;;;;;;;;;5033426;28;5045;-67
2024/01/25 01:54:09;;;;;;;;;;;;;;;;;;5038163;28;5026;-67
2024/01/25 01:56:35;;;;;;;;;;;;;;;;;;5045460;28;1141;-67
2024/01/25 01:59:00;;;;;;;;;;;;;;;;;;5039623;28;5084;-67
2024/01/25 02:01:26;;;;;;;;;;;;;;;;;;5035864;28;4587;-67
2024/01/25 02:03:51;;;;;;;;;;;;;;;;;;5031864;28;5225;-66
2024/01/25 02:06:17;;;;;;;;;;;;;;;;;;5034187;28;4545;-67
2024/01/25 02:08:42;;;;;;;;;;;;;;;;;;5039309;28;3351;-67
2024/01/25 02:11:08;;;;;;;;;;;;;;;;;;5034659;28;5062;-66
2024/01/25 02:13:34;;;;;;;;;;;;;;;;;;5037629;28;4679;-67
2024/01/25 02:15:59;;;;;;;;;;;;;;;;;;5034423;28;4551;-66
2024/01/25 02:18:24;;;;;;;;;;;;;;;;;;5051340;28;4509;-67
2024/01/25 02:20:50;;;;;;;;;;;;;;;;;;5045083;28;3394;-67
2024/01/25 02:23:15;;;;;;;;;;;;;;;;;;5038881;28;4434;-67
2024/01/25 02:25:40;;;;;;;;;;;;;;;;;;5032454;28;4933;-67
2024/01/25 02:28:05;;;;;;;;;;;;;;;;;;5030347;28;5108;-67
2024/01/25 02:30:31;;;;;;;;;;;;;;;;;;5031158;28;5109;-67
2024/01/25 02:32:56;;;;;;;;;;;;;;;;;;5034036;28;3499;-65
2024/01/25 02:35:22;;;;;;;;;;;;;;;;;;5032524;28;4439;-66
2024/01/25 02:37:47;;;;;;;;;;;;;;;;;;5030396;28;5077;-66
2024/01/25 02:40:12;;;;;;;;;;;;;;;;;;5028933;28;5050;-67
2024/01/25 02:42:38;;;;;;;;;;;;;;;;;;5034381;28;5181;-67
2024/01/25 02:45:03;;;;;;;;;;;;;;;;;;5033718;28;4646;-67
2024/01/25 02:47:28;;;;;;;;;;;;;;;;;;5035936;28;3363;-67
2024/01/25 02:49:54;;;;;;;;;;;;;;;;;;5031224;28;5089;-67
2024/01/25 02:52:19;;;;;;;;;;;;;;;;;;5032102;28;5292;-67
2024/01/25 02:54:44;;;;;;;;;;;;;;;;;;5037102;28;4509;-67
2024/01/25 02:57:09;;;;;;;;;;;;;;;;;;5035143;28;5128;-67
2024/01/25 02:59:35;;;;;;;;;;;;;;;;;;5039332;28;3806;-67
2024/01/25 03:02:00;;;;;;;;;;;;;;;;;;5039450;28;4551;-67
2024/01/25 03:04:25;;;;;;;;;;;;;;;;;;5040741;28;5253;-67
2024/01/25 03:06:51;;;;;;;;;;;;;;;;;;5033096;28;4568;-66
2024/01/25 03:09:16;;;;;;;;;;;;;;;;;;5034480;28;5090;-66
2024/01/25 03:11:41;;;;;;;;;;;;;;;;;;5031520;28;3448;-66
2024/01/25 03:14:07;;;;;;;;;;;;;;;;;;5038616;28;5126;-65
2024/01/25 03:16:32;;;;;;;;;;;;;;;;;;5037479;28;5018;-65
2024/01/25 03:18:57;;;;;;;;;;;;;;;;;;5040063;28;5084;-67
2024/01/25 03:21:22;;;;;;;;;;;;;;;;;;5032303;28;5269;-67
2024/01/25 03:23:48;;;;;;;;;;;;;;;;;;5030895;28;3324;-67
2024/01/25 03:26:13;;;;;;;;;;;;;;;;;;5065735;28;5051;-65
2024/01/25 03:28:39;;;;;;;;;;;;;;;;;;5037477;28;4633;-67
2024/01/25 03:31:05;;;;;;;;;;;;;;;;;;5041224;28;4563;-67
2024/01/25 03:33:32;;;;;;;;;;;;;;;;;;5037274;28;5018;-67
2024/01/25 03:36:00;;;;;;;;;;;;;;;;;;5040435;28;3403;-66
2024/01/25 03:38:26;;;;;;;;;;;;;;;;;;5045404;28;4393;-66
2024/01/25 03:40:52;;;;;;;;;;;;;;;;;;5029991;28;5051;-66
2024/01/25 03:43:17;;;;;;;;;;;;;;;;;;5035418;28;5163;-66
2024/01/25 03:45:43;;;;;;;;;;;;;;;;;;5045216;28;5107;-67
2024/01/25 03:48:08;;;;;;;;;;;;;;;;;;5035040;28;4517;-67
2024/01/25 03:50:33;;;;;;;;;;;;;;;;;;5041371;28;3241;-66
2024/01/25 03:52:58;;;;;;;;;;;;;;;;;;5037279;28;5053;-67
2024/01/25 03:55:24;;;;;;;;;;;;;;;;;;5036613;28;4727;-67
2024/01/25 03:57:49;;;;;;;;;;;;;;;;;;5041605;28;4702;-67
2024/01/25 04:00:15;;;;;;;;;;;;;;;;;;5043912;28;5267;-67
2024/01/25 04:02:40;;;;;;;;;;;;;;;;;;5036466;28;3330;-66
2024/01/25 04:05:05;;;;;;;;;;;;;;;;;;5038295;28;5361;-67
2024/01/25 04:07:31;;;;;;;;;;;;;;;;;;5041737;28;5446;-67
2024/01/25 04:09:56;;;;;;;;;;;;;;;;;;5044950;28;5187;-67
2024/01/25 04:12:21;;;;;;;;;;;;;;;;;;5042869;28;5092;-67
2024/01/25 04:14:46;;;;;;;;;;;;;;;;;;5045986;28;3295;-66
2024/01/25 04:17:12;;;;;;;;;;;;;;;;;;5038908;28;5090;-66
2024/01/25 04:19:37;;;;;;;;;;;;;;;;;;5042932;28;4471;-66
2024/01/25 04:22:02;;;;;;;;;;;;;;;;;;5044408;28;4953;-66
2024/01/25 04:24:28;;;;;;;;;;;;;;;;;;5037852;28;5234;-66
2024/01/25 04:26:53;;;;;;;;;;;;;;;;;;5040351;28;1219;-66
2024/01/25 04:29:18;;;;;;;;;;;;;;;;;;5039678;28;5197;-66
2024/01/25 04:31:44;;;;;;;;;;;;;;;;;;5041254;28;4959;-66
2024/01/25 04:34:10;;;;;;;;;;;;;;;;;;5035995;28;5163;-66
2024/01/25 04:36:36;;;;;;;;;;;;;;;;;;5044060;28;4648;-66
2024/01/25 04:39:01;;;;;;;;;;;;;;;;;;5037939;28;5092;-67
2024/01/25 04:41:26;;;;;;;;;;;;;;;;;;5041084;28;3389;-66
2024/01/25 04:43:52;;;;;;;;;;;;;;;;;;5044975;28;5068;-67
2024/01/25 04:46:17;;;;;;;;;;;;;;;;;;5040446;28;5215;-67
2024/01/25 04:48:42;;;;;;;;;;;;;;;;;;5045619;28;4865;-68
2024/01/25 04:51:07;;;;;;;;;;;;;;;;;;5042326;28;4508;-66
2024/01/25 04:53:33;;;;;;;;;;;;;;;;;;5043329;28;3416;-66
2024/01/25 04:55:59;;;;;;;;;;;;;;;;;;5035404;28;5094;-66
2024/01/25 04:58:25;;;;;;;;;;;;;;;;;;5033216;28;5250;-67
2024/01/25 05:00:50;;;;;;;;;;;;;;;;;;5041261;28;5107;-66
2024/01/25 05:03:15;;;;;;;;;;;;;;;;;;5037921;28;4544;-67
2024/01/25 05:05:41;;;;;;;;;;;;;;;;;;5042192;28;3253;-67
2024/01/25 05:08:06;;;;;;;;;;;;;;;;;;5039220;28;5003;-67
2024/01/25 05:10:32;;;;;;;;;;;;;;;;;;5028383;28;5126;-67
2024/01/25 05:12:57;;;;;;;;;;;;;;;;;;5031701;28;5056;-66
2024/01/25 05:15:22;;;;;;;;;;;;;;;;;;5033089;28;5095;-66
2024/01/25 05:17:47;;;;;;;;;;;;;;;;;;5039488;28;1144;-66
2024/01/25 05:20:15;;;;;;;;;;;;;;;;;;5043192;28;4532;-66
2024/01/25 05:22:41;;;;;;;;;;;;;;;;;;5036812;28;4636;-66
2024/01/25 05:25:08;;;;;;;;;;;;;;;;;;5037659;28;5018;-66
2024/01/25 05:27:33;;;;;;;;;;;;;;;;;;5029905;28;4542;-66
2024/01/25 05:29:58;;;;;;;;;;;;;;;;;;5031568;28;3437;-67
2024/01/25 05:32:24;;;;;;;;;;;;;;;;;;5038168;28;5218;-66
2024/01/25 05:34:49;;;;;;;;;;;;;;;;;;5028055;28;5050;-66
2024/01/25 05:37:14;;;;;;;;;;;;;;;;;;5032919;28;4699;-67
2024/01/25 05:39:40;;;;;;;;;;;;;;;;;;5028811;28;5073;-67
2024/01/25 05:42:05;;;;;;;;;;;;;;;;;;5031475;28;5105;-67
2024/01/25 05:44:30;;;;;;;;;;;;;;;;;;5035466;28;3509;-61
2024/01/25 05:46:55;;;;;;;;;;;;;;;;;;5034168;28;5185;-60
2024/01/25 05:49:21;;;;;;;;;;;;;;;;;;5032523;28;5172;-59
2024/01/25 05:51:46;;;;;;;;;;;;;;;;;;5033653;28;4674;-59
2024/01/25 05:54:11;;;;;;;;;;;;;;;;;;5032470;28;4986;-59
2024/01/25 05:56:37;;;;;;;;;;;;;;;;;;5043466;28;3303;-59
2024/01/25 05:59:02;;;;;;;;;;;;;;;;;;5036168;28;4954;-59
2024/01/25 06:01:27;;;;;;;;;;;;;;;;;;5042953;28;5140;-59
2024/01/25 06:03:53;;;;;;;;;;;;;;;;;;5035728;28;5182;-60
2024/01/25 06:06:18;;;;;;;;;;;;;;;;;;5035616;28;4969;-59
2024/01/25 06:08:43;;;;;;;;;;;;;;;;;;5039324;28;3276;-58
2024/01/25 06:11:09;;;;;;;;;;;;;;;;;;5043550;28;4469;-61
2024/01/25 06:13:34;;;;;;;;;;;;;;;;;;5032246;28;5037;-60
2024/01/25 06:16:00;;;;;;;;;;;;;;;;;;5035368;28;5449;-60
2024/01/25 06:18:26;;;;;;;;;;;;;;;;;;5036920;28;5179;-59
2024/01/25 06:20:52;;;;;;;;;;;;;;;;;;5024764;28;3482;-59
2024/01/25 06:23:17;;;;;;;;;;;;;;;;;;5033930;28;4854;-62
2024/01/25 06:25:42;;;;;;;;;;;;;;;;;;5037445;28;5063;-59
2024/01/25 06:28:07;;;;;;;;;;;;;;;;;;5040823;28;5150;-59
2024/01/25 06:30:33;;;;;;;;;;;;;;;;;;5037972;28;5046;-59
2024/01/25 06:32:58;;;;;;;;;;;;;;;;;;5040218;28;3164;-59
2024/01/25 06:35:23;;;;;;;;;;;;;;;;;;5043912;28;4960;-58
2024/01/25 06:37:49;;;;;;;;;;;;;;;;;;5050297;28;4473;-59
2024/01/25 06:40:14;;;;;;;;;;;;;;;;;;5041836;28;4586;-58
2024/01/25 06:42:39;;;;;;;;;;;;;;;;;;5047190;28;5079;-60
2024/01/25 06:45:05;;;;;;;;;;;;;;;;;;5051198;28;4770;-62
2024/01/25 06:47:30;;;;;;;;;;;;;;;;;;5042833;28;3166;-58
2024/01/25 06:49:55;;;;;;;;;;;;;;;;;;5042757;28;4452;-60
2024/01/25 06:52:21;;;;;;;;;;;;;;;;;;5044956;28;4991;-60
2024/01/25 06:54:46;;;;;;;;;;;;;;;;;;5049601;28;5504;-59
2024/01/25 06:57:11;;;;;;;;;;;;;;;;;;5050333;28;4982;-58
2024/01/25 06:59:36;;;;;;;;;;;;;;;;;;5045873;28;3339;-58
2024/01/25 07:02:02;;;;;;;;;;;;;;;;;;5045215;28;5130;-62
2024/01/25 07:04:28;;;;;;;;;;;;;;;;;;5043865;28;5155;-61
2024/01/25 07:06:53;;;;;;;;;;;;;;;;;;5050107;28;5014;-59
2024/01/25 07:09:19;;;;;;;;;;;;;;;;;;5040570;28;4626;-58
2024/01/25 07:11:44;;;;;;;;;;;;;;;;;;5050890;28;1868;-58
2024/01/25 07:14:09;;;;;;;;;;;;;;;;;;5047873;28;5095;-58
2024/01/25 07:16:35;;;;;;;;;;;;;;;;;;5044864;28;5127;-58
2024/01/25 07:19:00;;;;;;;;;;;;;;;;;;5043798;28;5008;-58
2024/01/25 07:21:25;;;;;;;;;;;;;;;;;;5049850;28;5097;-61
2024/01/25 07:23:51;;;;;;;;;;;;;;;;;;5048956;28;3319;-60
2024/01/25 07:26:17;;;;;;;;;;;;;;;;;;5036244;28;5013;-59
2024/01/25 07:28:42;;;;;;;;;;;;;;;;;;5047090;28;4911;-59
2024/01/25 07:31:07;;;;;;;;;;;;;;;;;;5049961;28;5164;-60
2024/01/25 07:33:32;;;;;;;;;;;;;;;;;;5036159;28;4969;-60
2024/01/25 07:35:58;;;;;;;;;;;;;;;;;;5048271;28;1156;-63
2024/01/25 07:38:24;;;;;;;;;;;;;;;;;;5050129;28;5044;-59
2024/01/25 07:40:49;;;;;;;;;;;;;;;;;;5047285;28;5755;-57
2024/01/25 07:43:14;;;;;;;;;;;;;;;;;;5041901;28;5100;-58
2024/01/25 07:45:40;;;;;;;;;;;;;;;;;;5042537;28;5193;-58
2024/01/25 07:48:05;;;;;;;;;;;;;;;;;;5049254;28;5063;-59
2024/01/25 07:50:30;;;;;;;;;;;;;;;;;;5049768;28;1598;-57
2024/01/25 07:52:56;;;;;;;;;;;;;;;;;;5040230;28;4611;-59
2024/01/25 07:55:21;;;;;;;;;;;;;;;;;;5039837;28;4909;-58
2024/01/25 07:57:46;;;;;;;;;;;;;;;;;;5049181;28;4989;-60
2024/01/25 08:00:12;;;;;;;;;;;;;;;;;;5042723;28;5263;-59
2024/01/25 08:02:41;;;;;;;;;;;;;;;;;;5036977;28;1120;-59
2024/01/25 08:05:06;;;;;;;;;;;;;;;;;;5041963;28;4964;-58
2024/01/25 08:07:32;;;;;;;;;;;;;;;;;;5049008;28;5044;-59
2024/01/25 08:09:58;;;;;;;;;;;;;;;;;;5044749;28;5267;-59
2024/01/25 08:12:26;;;;;;;;;;;;;;;;;;5049325;28;4471;-58
2024/01/25 08:14:51;;;;;;;;;;;;;;;;;;5046972;28;3233;-59
2024/01/25 08:17:16;;;;;;;;;;;;;;;;;;5045077;28;5003;-58
2024/01/25 08:19:42;;;;;;;;;;;;;;;;;;5043478;28;5315;-61
2024/01/25 08:22:07;;;;;;;;;;;;;;;;;;5049485;28;4620;-60
2024/01/25 08:24:33;;;;;;;;;;;;;;;;;;5047307;28;4902;-60
2024/01/25 08:26:58;;;;;;;;;;;;;;;;;;5045980;28;3365;-58
2024/01/25 08:29:23;;;;;;;;;;;;;;;;;;5041771;28;4997;-59
2024/01/25 08:31:48;;;;;;;;;;;;;;;;;;5046207;28;4455;-58
2024/01/25 08:34:14;;;;;;;;;;;;;;;;;;5042131;28;4890;-57
2024/01/25 08:36:39;;;;;;;;;;;;;;;;;;5044470;28;4610;-59
2024/01/25 08:39:05;;;;;;;;;;;;;;;;;;5040580;28;5179;-60
2024/01/25 08:41:30;;;;;;;;;;;;;;;;;;5045460;28;2560;-58
2024/01/25 08:43:56;;;;;;;;;;;;;;;;;;5045070;28;4981;-59
2024/01/25 08:46:21;;;;;;;;;;;;;;;;;;5038532;28;4991;-60
2024/01/25 08:48:46;;;;;;;;;;;;;;;;;;5046537;28;5055;-58
2024/01/25 08:51:11;;;;;;;;;;;;;;;;;;5048607;28;5108;-59
2024/01/25 08:53:37;;;;;;;;;;;;;;;;;;5048878;28;1096;-58
2024/01/25 08:56:04;;;;;;;;;;;;;;;;;;5042263;28;5260;-60
2024/01/25 08:58:29;;;;;;;;;;;;;;;;;;5045099;28;5056;-61
2024/01/25 09:00:55;;;;;;;;;;;;;;;;;;5043363;28;5164;-60
2024/01/25 09:03:20;;;;;;;;;;;;;;;;;;5036747;28;4622;-63
2024/01/25 09:05:45;;;;;;;;;;;;;;;;;;5044805;28;1372;-58
2024/01/25 09:08:11;;;;;;;;;;;;;;;;;;5047973;28;4610;-60
2024/01/25 09:10:36;;;;;;;;;;;;;;;;;;5044662;28;4521;-59
2024/01/25 09:13:02;;;;;;;;;;;;;;;;;;5042913;28;4522;-59
2024/01/25 09:15:27;;;;;;;;;;;;;;;;;;5037724;28;5233;-60
2024/01/25 09:17:52;;;;;;;;;;;;;;;;;;5078745;28;1501;-58
2024/01/25 09:20:18;;;;;;;;;;;;;;;;;;5043102;28;4983;-58
2024/01/25 09:22:44;;;;;;;;;;;;;;;;;;5038610;28;4463;-59
2024/01/25 09:25:09;;;;;;;;;;;;;;;;;;5043897;28;6031;-60
2024/01/25 09:27:34;;;;;;;;;;;;;;;;;;5046285;28;4974;-58
2024/01/25 09:29:59;;;;;;;;;;;;;;;;;;5042935;28;3302;-59
2024/01/25 09:32:25;;;;;;;;;;;;;;;;;;5035931;28;5003;-59
2024/01/25 09:34:50;;;;;;;;;;;;;;;;;;5039731;28;5241;-59
2024/01/25 09:37:17;;;;;;;;;;;;;;;;;;5045454;28;5173;-59
2024/01/25 09:39:42;;;;;;;;;;;;;;;;;;5043947;28;5104;-59
2024/01/25 09:42:08;;;;;;;;;;;;;;;;;;5041894;28;4668;-58
2024/01/25 09:44:33;;;;;;;;;;;;;;;;;;5045846;28;2200;-58
2024/01/25 09:46:59;;;;;;;;;;;;;;;;;;5047936;28;4993;-59
2024/01/25 09:49:24;;;;;;;;;;;;;;;;;;5044490;28;5086;-59
2024/01/25 09:51:50;;;;;;;;;;;;;;;;;;5067606;28;4550;-58
2024/01/25 09:54:15;;;;;;;;;;;;;;;;;;5041493;28;4627;-60
2024/01/25 09:56:41;;;;;;;;;;;;;;;;;;5045810;28;1145;-64
2024/01/25 09:59:06;;;;;;;;;;;;;;;;;;5037621;28;5084;-59
2024/01/25 10:01:31;;;;;;;;;;;;;;;;;;5036792;28;5153;-59
2024/01/25 10:03:57;;;;;;;;;;;;;;;;;;5036176;28;5037;-59
2024/01/25 10:06:22;;;;;;;;;;;;;;;;;;5040131;28;4983;-59
2024/01/25 10:08:48;;;;;;;;;;;;;;;;;;5035789;28;1097;-59
2024/01/25 10:11:14;;;;;;;;;;;;;;;;;;5041689;28;5094;-58
2024/01/25 10:13:46;;;;;;;;;;;;;;;;;;5042824;28;5042;-58
2024/01/25 10:16:12;;;;;;;;;;;;;;;;;;5049601;28;4502;-60
2024/01/25 10:18:37;;;;;;;;;;;;;;;;;;5039767;28;4518;-60
2024/01/25 10:21:03;;;;;;;;;;;;;;;;;;5045793;28;5085;-60
2024/01/25 10:23:28;;;;;;;;;;;;;;;;;;5046101;28;1657;-58
2024/01/25 10:25:54;;;;;;;;;;;;;;;;;;5035492;28;5143;-58
2024/01/25 10:28:19;;;;;;;;;;;;;;;;;;5044397;28;5103;-58
2024/01/25 10:30:44;;;;;;;;;;;;;;;;;;5040924;28;5282;-58
2024/01/25 10:33:09;;;;;;;;;;;;;;;;;;5041311;28;4669;-59
2024/01/25 10:35:35;;;;;;;;;;;;;;;;;;5035058;28;1059;-60
2024/01/25 10:38:00;;;;;;;;;;;;;;;;;;5047102;28;5026;-58
2024/01/25 10:40:26;;;;;;;;;;;;;;;;;;5046374;28;5121;-60
2024/01/25 10:42:52;;;;;;;;;;;;;;;;;;5045545;28;6002;-59
2024/01/25 10:45:17;;;;;;;;;;;;;;;;;;5043904;28;5140;-60
2024/01/25 10:47:44;;;;;;;;;;;;;;;;;;5047287;28;1171;-60
2024/01/25 10:50:10;;;;;;;;;;;;;;;;;;5042285;28;5186;-58
2024/01/25 10:52:35;;;;;;;;;;;;;;;;;;5032853;28;5095;-60
2024/01/25 10:55:00;;;;;;;;;;;;;;;;;;5045489;28;5033;-58
2024/01/25 10:57:26;;;;;;;;;;;;;;;;;;5045296;28;5058;-58
2024/01/25 10:59:51;;;;;;;;;;;;;;;;;;5044538;28;3300;-58
2024/01/25 11:02:20;;;;;;;;;;;;;;;;;;5037392;28;4909;-59
2024/01/25 11:04:55;;;;;;;;;;;;;;;;;;5040731;28;5053;-59
2024/01/25 11:07:20;;;;;;;;;;;;;;;;;;5044600;28;5009;-58
2024/01/25 11:09:45;;;;;;;;;;;;;;;;;;5061237;28;5286;-60
2024/01/25 11:12:16;;;;;;;;;;;;;;;;;;5045059;28;4710;-58
2024/01/25 11:14:42;;;;;;;;;;;;;;;;;;5040720;28;3308;-58
2024/01/25 11:17:20;;;;;;;;;;;;;;;;;;5042857;28;4548;-59
2024/01/25 11:19:45;;;;;;;;;;;;;;;;;;5039999;28;5058;-60
2024/01/25 11:22:11;;;;;;;;;;;;;;;;;;5050061;28;4900;-59
2024/01/25 11:24:37;;;;;;;;;;;;;;;;;;5049750;28;5056;-58
2024/01/25 11:27:02;;;;;;;;;;;;;;;;;;5046778;28;5057;-59
2024/01/25 11:29:28;;;;;;;;;;;;;;;;;;5046466;28;3165;-58
2024/01/25 11:31:53;;;;;;;;;;;;;;;;;;5045439;28;4474;-60
2024/01/25 11:34:18;;;;;;;;;;;;;;;;;;5044105;28;5071;-59
2024/01/25 11:36:44;;;;;;;;;;;;;;;;;;5028425;28;5084;-61
2024/01/25 11:39:11;;;;;;;;;;;;;;;;;;5036040;28;4924;-59
2024/01/25 11:41:36;;;;;;;;;;;;;;;;;;5048950;28;3109;-58
2024/01/25 11:44:02;;;;;;;;;;;;;;;;;;5047734;28;5057;-58
2024/01/25 11:46:27;;;;;;;;;;;;;;;;;;5044172;28;4494;-60
2024/01/25 11:48:53;;;;;;;;;;;;;;;;;;5045262;28;4923;-59
2024/01/25 11:51:18;;;;;;;;;;;;;;;;;;5049445;28;4482;-58
2024/01/25 11:53:44;;;;;;;;;;;;;;;;;;5042574;28;3265;-59
2024/01/25 11:56:10;;;;;;;;;;;;;;;;;;5039063;28;4488;-59
2024/01/25 11:58:36;;;;;;;;;;;;;;;;;;5046284;28;4822;-61
2024/01/25 12:01:05;;;;;;;;;;;;;;;;;;5049067;28;5032;-58
2024/01/25 12:03:30;;;;;;;;;;;;;;;;;;5044819;28;5152;-60
2024/01/25 12:05:58;;;;;;;;;;;;;;;;;;5047232;28;1139;-60
2024/01/25 12:08:23;;;;;;;;;;;;;;;;;;5046689;28;5014;-59
2024/01/25 12:10:48;;;;;;;;;;;;;;;;;;5048413;28;4458;-59
2024/01/25 12:13:14;;;;;;;;;;;;;;;;;;5040495;28;4560;-61
2024/01/25 12:15:40;;;;;;;;;;;;;;;;;;5048681;28;5026;-61
2024/01/25 12:18:06;;;;;;;;;;;;;;;;;;5045974;28;5073;-61
2024/01/25 12:20:32;;;;;;;;;;;;;;;;;;5047225;28;1980;-59
2024/01/25 12:22:58;;;;;;;;;;;;;;;;;;5040066;28;5131;-60
2024/01/25 12:25:23;;;;;;;;;;;;;;;;;;5045605;28;4761;-60
2024/01/25 12:27:51;;;;;;;;;;;;;;;;;;5043587;28;5096;-58
2024/01/25 12:30:16;;;;;;;;;;;;;;;;;;5044641;28;5189;-59
2024/01/25 12:32:42;;;;;;;;;;;;;;;;;;5037870;28;1108;-60
2024/01/25 12:35:08;;;;;;;;;;;;;;;;;;5043892;28;5108;-60
2024/01/25 12:37:34;;;;;;;;;;;;;;;;;;5047848;28;4612;-57
2024/01/25 12:39:59;;;;;;;;;;;;;;;;;;5047946;28;5545;-59
2024/01/25 12:42:24;;;;;;;;;;;;;;;;;;5025484;28;5033;-59
2024/01/25 12:44:51;;;;;;;;;;;;;;;;;;5040087;28;3128;-61
2024/01/25 12:47:17;;;;;;;;;;;;;;;;;;5040564;28;5164;-60
2024/01/25 12:49:42;;;;;;;;;;;;;;;;;;5044954;28;4561;-59
2024/01/25 12:52:08;;;;;;;;;;;;;;;;;;5037230;28;5059;-60
2024/01/25 12:54:34;;;;;;;;;;;;;;;;;;5056493;28;4976;-61
2024/01/25 12:56:59;;;;;;;;;;;;;;;;;;5048282;28;3307;-59
2024/01/25 12:59:24;;;;;;;;;;;;;;;;;;5041783;28;4964;-58
2024/01/25 13:01:50;;;;;;;;;;;;;;;;;;5029638;28;5157;-60
2024/01/25 13:04:15;;;;;;;;;;;;;;;;;;5062962;28;5229;-60
2024/01/25 13:06:40;;;;;;;;;;;;;;;;;;5044690;28;5153;-59
2024/01/25 13:09:06;;;;;;;;;;;;;;;;;;5043275;28;4568;-61
2024/01/25 13:11:31;;;;;;;;;;;;;;;;;;5043618;28;3219;-61
2024/01/25 13:13:56;;;;;;;;;;;;;;;;;;5038566;28;5078;-59
2024/01/25 13:16:22;;;;;;;;;;;;;;;;;;5045668;28;5043;-58
2024/01/25 13:18:47;;;;;;;;;;;;;;;;;;5041586;28;4623;-61
2024/01/25 13:21:12;;;;;;;;;;;;;;;;;;5045804;28;5086;-61
2024/01/25 13:23:38;;;;;;;;;;;;;;;;;;5039475;28;3189;-62
2024/01/25 13:26:03;;;;;;;;;;;;;;;;;;5038445;28;4623;-60
2024/01/25 13:28:29;;;;;;;;;;;;;;;;;;5047539;28;4741;-60
2024/01/25 13:30:56;;;;;;;;;;;;;;;;;;5047459;28;5159;-59
2024/01/25 13:33:21;;;;;;;;;;;;;;;;;;5044519;28;5183;-64
2024/01/25 13:35:46;;;;;;;;;;;;;;;;;;5038544;28;1179;-59
2024/01/25 13:38:14;;;;;;;;;;;;;;;;;;5043544;28;5088;-61
2024/01/25 13:40:40;;;;;;;;;;;;;;;;;;5042013;28;5022;-59
2024/01/25 13:43:05;;;;;;;;;;;;;;;;;;5036052;28;4503;-60
2024/01/25 13:45:30;;;;;;;;;;;;;;;;;;5042905;28;5154;-59
2024/01/25 13:47:55;;;;;;;;;;;;;;;;;;5047475;28;3454;-59
2024/01/25 13:50:21;;;;;;;;;;;;;;;;;;5044128;28;5121;-58
2024/01/25 13:52:46;;;;;;;;;;;;;;;;;;5046489;28;4654;-58
2024/01/25 13:55:11;;;;;;;;;;;;;;;;;;5035252;28;5079;-64
2024/01/25 13:57:37;;;;;;;;;;;;;;;;;;5045605;28;4670;-59
2024/01/25 14:00:03;;;;;;;;;;;;;;;;;;5040049;28;5029;-62
2024/01/25 14:02:29;;;;;;;;;;;;;;;;;;5068919;28;2334;-59
2024/01/25 14:04:54;;;;;;;;;;;;;;;;;;5042223;28;5381;-58
2024/01/25 14:07:20;;;;;;;;;;;;;;;;;;5039075;28;4506;-57
2024/01/25 14:09:46;;;;;;;;;;;;;;;;;;5041642;28;4636;-59
2024/01/25 14:12:11;;;;;;;;;;;;;;;;;;5040686;28;5012;-59
2024/01/25 14:14:37;;;;;;;;;;;;;;;;;;5038145;28;3344;-57
2024/01/25 14:17:02;;;;;;;;;;;;;;;;;;5032673;28;4953;-60
2024/01/25 14:19:27;;;;;;;;;;;;;;;;;;5031976;28;4840;-60
2024/01/25 14:21:53;;;;;;;;;;;;;;;;;;5045155;28;5036;-60
2024/01/25 14:24:18;;;;;;;;;;;;;;;;;;5041698;28;4764;-59
2024/01/25 14:26:44;;;;;;;;;;;;;;;;;;5033543;28;3359;-59
2024/01/25 14:29:09;;;;;;;;;;;;;;;;;;5035837;28;4672;-60
2024/01/25 14:31:34;;;;;;;;;;;;;;;;;;5043645;28;5075;-58
2024/01/25 14:33:59;;;;;;;;;;;;;;;;;;5034929;28;4688;-58
2024/01/25 14:36:25;;;;;;;;;;;;;;;;;;5034494;28;5110;-59
2024/01/25 14:38:50;;;;;;;;;;;;;;;;;;5036285;28;2270;-60
2024/01/25 14:41:15;;;;;;;;;;;;;;;;;;5042373;28;4470;-59
2024/01/25 14:43:41;;;;;;;;;;;;;;;;;;5049550;28;5592;-59
2024/01/25 14:46:07;;;;;;;;;;;;;;;;;;5043917;28;4499;-59
2024/01/25 14:48:32;;;;;;;;;;;;;;;;;;5048157;28;4673;-58
2024/01/25 14:50:57;;;;;;;;;;;;;;;;;;5046903;28;3303;-58
2024/01/25 14:53:23;;;;;;;;;;;;;;;;;;5046676;28;5053;-58
2024/01/25 14:55:48;;;;;;;;;;;;;;;;;;5039401;28;4792;-58
2024/01/25 14:58:14;;;;;;;;;;;;;;;;;;5043542;28;5231;-59
2024/01/25 15:00:40;;;;;;;;;;;;;;;;;;5048825;28;5115;-60
2024/01/25 15:03:05;;;;;;;;;;;;;;;;;;5041678;28;4918;-61
2024/01/25 15:05:30;;;;;;;;;;;;;;;;;;5044211;28;2206;-60
2024/01/25 15:07:56;;;;;;;;;;;;;;;;;;5045568;28;4614;-60
2024/01/25 15:10:21;;;;;;;;;;;;;;;;;;5043243;28;4497;-58
2024/01/25 15:12:47;;;;;;;;;;;;;;;;;;5043677;28;5167;-58
2024/01/25 15:15:12;;;;;;;;;;;;;;;;;;5037262;28;4662;-59
2024/01/25 15:17:38;;;;;;;;;;;;;;;;;;5049576;28;1039;-58
2024/01/25 15:20:03;;;;;;;;;;;;;;;;;;5043998;28;4948;-61
2024/01/25 15:22:30;;;;;;;;;;;;;;;;;;5041126;28;5232;-60
2024/01/25 15:24:56;;;;;;;;;;;;;;;;;;5041529;28;4716;-58
2024/01/25 15:27:21;;;;;;;;;;;;;;;;;;5044080;28;4466;-58
2024/01/25 15:29:47;;;;;;;;;;;;;;;;;;5049244;28;1389;-58
2024/01/25 15:32:12;;;;;;;;;;;;;;;;;;5044461;28;4932;-59
2024/01/25 15:34:37;;;;;;;;;;;;;;;;;;5035823;28;5184;-60
2024/01/25 15:37:02;;;;;;;;;;;;;;;;;;5048892;28;5172;-58
2024/01/25 15:39:28;;;;;;;;;;;;;;;;;;5045636;28;4955;-61
2024/01/25 15:41:53;;;;;;;;;;;;;;;;;;5046681;28;1914;-58
2024/01/25 15:44:18;;;;;;;;;;;;;;;;;;5049220;28;5207;-59
2024/01/25 15:46:44;;;;;;;;;;;;;;;;;;5043281;28;5080;-59
2024/01/25 15:49:09;;;;;;;;;;;;;;;;;;5040596;28;5214;-59
2024/01/25 15:51:34;;;;;;;;;;;;;;;;;;5046632;28;5203;-58
2024/01/25 15:54:00;;;;;;;;;;;;;;;;;;5039620;28;5156;-61
2024/01/25 15:56:25;;;;;;;;;;;;;;;;;;5043970;28;1477;-59
2024/01/25 15:58:52;;;;;;;;;;;;;;;;;;5040849;28;5342;-58
2024/01/25 16:01:18;;;;;;;;;;;;;;;;;;5045395;28;4660;-60
2024/01/25 16:03:43;;;;;;;;;;;;;;;;;;5044572;28;4487;-59
2024/01/25 16:06:08;;;;;;;;;;;;;;;;;;5047485;28;5105;-60
2024/01/25 16:08:34;;;;;;;;;;;;;;;;;;5040140;28;1266;-60
2024/01/25 16:10:59;;;;;;;;;;;;;;;;;;5045207;28;5069;-60
2024/01/25 16:13:24;;;;;;;;;;;;;;;;;;5048683;28;4900;-58
2024/01/25 16:15:49;;;;;;;;;;;;;;;;;;5043033;28;5154;-57
2024/01/25 16:18:15;;;;;;;;;;;;;;;;;;5034022;28;5098;-58
2024/01/25 16:20:40;;;;;;;;;;;;;;;;;;5048309;28;1917;-58
2024/01/25 16:23:06;;;;;;;;;;;;;;;;;;5044669;28;4951;-61
2024/01/25 16:25:31;;;;;;;;;;;;;;;;;;5037095;28;4752;-59
2024/01/25 16:27:56;;;;;;;;;;;;;;;;;;5049149;28;4967;-58
2024/01/25 16:30:22;;;;;;;;;;;;;;;;;;5038896;28;4722;-60
2024/01/25 16:32:47;;;;;;;;;;;;;;;;;;5047225;28;1049;-59
2024/01/25 16:35:12;;;;;;;;;;;;;;;;;;5035613;28;5139;-59
2024/01/25 16:37:38;;;;;;;;;;;;;;;;;;5048285;28;4510;-57
2024/01/25 16:40:03;;;;;;;;;;;;;;;;;;5044640;28;5241;-61
2024/01/25 16:42:29;;;;;;;;;;;;;;;;;;5047405;28;5030;-59
2024/01/25 16:44:54;;;;;;;;;;;;;;;;;;5047682;28;2366;-57
2024/01/25 16:47:20;;;;;;;;;;;;;;;;;;5046486;28;4989;-59
2024/01/25 16:49:45;;;;;;;;;;;;;;;;;;5046644;28;5124;-58